Time;durP1;ratioP1;P1;durP2;ratioP2;P2;SDS_P1;SDS_P2;PMS_P1;PMS_P2;Temp;Humidity;BMP_temperature;BMP_pressure;BME280_temperature;BME280_humidity;BME280_pressure;Samples;Min_cycle;Max_cycle;Signal;HPM_P1;HPM_P2
2022/03/26 00:00:43;;;;;;;27.77;15.07;;;;;;;9.06;64.17;103340.38;5076924;28;20024;-79
2022/03/26 00:03:09;;;;;;;23.70;14.57;;;;;;;9.06;64.04;103330.81;5110223;28;20098;-79
2022/03/26 00:05:34;;;;;;;28.02;15.57;;;;;;;9.05;64.04;103331.66;5110622;28;20059;-79
2022/03/26 00:08:00;;;;;;;27.75;15.65;;;;;;;9.05;63.76;103325.56;5077659;28;20284;-79
2022/03/26 00:10:25;;;;;;;29.58;14.60;;;;;;;9.06;63.76;103337.75;5109924;28;20044;-79
2022/03/26 00:12:52;;;;;;;25.58;14.82;;;;;;;9.06;63.86;103332.53;5087864;28;20070;-79
2022/03/26 00:15:18;;;;;;;25.90;14.57;;;;;;;9.05;63.56;103330.78;5096676;28;20081;-79
2022/03/26 00:17:44;;;;;;;25.20;13.80;;;;;;;9.03;63.45;103331.66;5096282;28;20059;-79
2022/03/26 00:20:10;;;;;;;25.45;14.40;;;;;;;9.00;63.31;103331.66;5113114;28;20028;-78
2022/03/26 00:22:36;;;;;;;23.02;14.48;;;;;;;8.99;63.19;103332.50;5100272;27;20078;-78
2022/03/26 00:25:01;;;;;;;27.05;14.57;;;;;;;8.98;63.20;103332.47;5119818;27;20058;-79
2022/03/26 00:27:27;;;;;;;24.10;14.75;;;;;;;8.95;63.06;103333.34;5101658;28;20032;-79
2022/03/26 00:29:52;;;;;;;24.80;13.90;;;;;;;8.93;63.10;103331.56;5116750;28;20036;-79
2022/03/26 00:32:18;;;;;;;27.10;15.05;;;;;;;8.90;62.94;103342.91;5118406;28;20035;-78
2022/03/26 00:34:44;;;;;;;25.00;14.13;;;;;;;8.87;62.91;103337.66;5102370;28;20039;-79
2022/03/26 00:37:09;;;;;;;19.70;13.15;;;;;;;8.84;62.67;103340.22;5121119;27;20043;-79
2022/03/26 00:39:36;;;;;;;24.30;14.43;;;;;;;8.81;63.38;103341.09;5099792;28;20115;-79
2022/03/26 00:42:02;;;;;;;25.63;15.05;;;;;;;8.77;63.02;103343.69;5101300;27;20065;-79
2022/03/26 00:44:27;;;;;;;29.58;14.07;;;;;;;8.73;62.97;103339.28;5118139;27;20023;-79
2022/03/26 00:46:53;;;;;;;27.48;14.73;;;;;;;8.71;63.20;103341.03;5085255;28;20094;-79
2022/03/26 00:49:19;;;;;;;23.83;13.75;;;;;;;8.68;62.95;103335.75;5102218;28;20103;-78
2022/03/26 00:51:45;;;;;;;25.60;14.25;;;;;;;8.65;63.17;103336.63;5101618;28;20034;-78
2022/03/26 00:54:12;;;;;;;25.92;13.93;;;;;;;8.61;63.04;103338.34;5105812;28;20052;-79
2022/03/26 00:56:39;;;;;;;38.40;15.95;;;;;;;8.58;63.01;103338.31;5123885;27;20069;-79
2022/03/26 00:59:04;;;;;;;27.13;15.18;;;;;;;8.55;63.81;103338.31;5129396;27;20039;-79
2022/03/26 01:01:31;;;;;;;24.88;15.25;;;;;;;8.52;63.93;103340.03;5085666;27;20076;-79
2022/03/26 01:03:57;;;;;;;28.25;15.63;;;;;;;8.48;64.41;103343.44;5112801;28;20029;-79
2022/03/26 01:06:23;;;;;;;35.00;17.67;;;;;;;8.41;65.31;103346.00;5119792;28;20039;-79
2022/03/26 01:08:49;;;;;;;31.13;16.65;;;;;;;8.30;65.88;103344.16;5119744;27;20042;-79
2022/03/26 01:11:15;;;;;;;31.00;16.95;;;;;;;8.26;65.89;103343.25;5101077;28;20019;-79
2022/03/26 01:13:41;;;;;;;32.58;17.33;;;;;;;8.25;66.17;103344.09;5085517;28;20047;-79
2022/03/26 01:16:06;;;;;;;29.33;16.30;;;;;;;8.23;66.15;103333.66;5084569;28;20084;-79
2022/03/26 01:18:33;;;;;;;30.90;16.83;;;;;;;8.23;66.50;103340.59;5123022;27;20139;-78
2022/03/26 01:20:59;;;;;;;26.30;15.90;;;;;;;8.18;66.66;103337.94;5140848;27;20246;-79
2022/03/26 01:23:25;;;;;;;32.20;16.80;;;;;;;8.18;66.53;103340.56;5104535;28;20107;-79
2022/03/26 01:25:50;;;;;;;25.45;15.70;;;;;;;8.21;66.54;103340.59;5084792;28;20035;-79
2022/03/26 01:28:15;;;;;;;28.15;16.13;;;;;;;8.22;66.52;103344.06;5119275;28;20133;-79
2022/03/26 01:30:41;;;;;;;32.70;17.05;;;;;;;8.21;66.45;103345.81;5126616;27;20230;-79
2022/03/26 01:33:06;;;;;;;30.05;16.90;;;;;;;8.20;66.68;103341.44;5105337;27;20035;-78
2022/03/26 01:35:32;;;;;;;30.38;15.68;;;;;;;8.21;66.46;103335.38;5085177;28;20043;-79
2022/03/26 01:38:01;;;;;;;25.65;15.98;;;;;;;8.23;66.30;103338.88;5084477;28;20031;-79
2022/03/26 01:40:27;;;;;;;;;;;;;;;8.24;66.16;103335.41;5119874;28;20038;-79
2022/03/26 01:42:52;;;;;;;32.70;17.25;;;;;;;8.24;65.86;103334.50;5100418;28;19934;-79
2022/03/26 01:45:17;;;;;;;31.73;16.48;;;;;;;8.24;65.83;103337.13;5130569;27;20034;-79
2022/03/26 01:47:43;;;;;;;29.70;15.55;;;;;;;8.23;65.84;103338.00;5101126;28;20038;-79
2022/03/26 01:50:08;;;;;;;26.35;15.63;;;;;;;8.22;65.61;103339.75;5084263;28;20031;-78
2022/03/26 01:52:34;;;;;;;27.67;16.60;;;;;;;8.21;65.69;103337.13;5100092;28;20107;-79
2022/03/26 01:55:00;;;;;;;25.75;14.77;;;;;;;8.20;65.48;103336.22;5117071;27;20054;-78
2022/03/26 01:57:26;;;;;;;29.75;15.90;;;;;;;8.20;65.46;103335.34;5100535;28;20042;-78
2022/03/26 01:59:52;;;;;;;28.48;15.77;;;;;;;8.19;65.28;103337.09;5119267;27;20065;-78
2022/03/26 02:02:17;;;;;;;33.83;17.27;;;;;;;8.16;65.37;103329.22;5133900;27;20377;-79
2022/03/26 02:04:43;;;;;;;31.88;15.77;;;;;;;8.16;65.79;103330.97;5100785;28;20042;-79
2022/03/26 02:07:08;;;;;;;27.77;15.93;;;;;;;8.14;65.54;103325.72;5100824;28;20038;-79
2022/03/26 02:09:35;;;;;;;27.25;15.70;;;;;;;8.14;65.51;103319.66;5066811;28;20035;-79
2022/03/26 02:12:22;;;;;;;27.15;15.98;;;;;;;8.12;65.41;103327.47;5135010;27;20395;-79
2022/03/26 02:14:47;;;;;;;33.63;18.00;;;;;;;8.08;65.39;103323.94;5132083;27;20055;-78
2022/03/26 02:17:12;;;;;;;30.83;17.30;;;;;;;8.06;65.73;103324.81;5099703;28;20043;-78
2022/03/26 02:19:38;;;;;;;31.83;17.38;;;;;;;8.05;65.85;103323.03;5100353;28;20032;-79
2022/03/26 02:22:04;;;;;;;29.80;15.57;;;;;;;8.03;65.67;103320.41;5118971;27;20039;-78
2022/03/26 02:24:30;;;;;;;28.23;16.83;;;;;;;8.01;65.53;103322.13;5120964;27;20506;-78
2022/03/26 02:26:55;;;;;;;29.90;17.38;;;;;;;7.99;65.30;103320.38;5107347;28;20233;-78
2022/03/26 02:29:20;;;;;;;32.08;16.83;;;;;;;7.97;65.43;103320.38;5100119;28;20031;-78
2022/03/26 02:31:46;;;;;;;29.15;16.73;;;;;;;7.94;65.23;103319.47;5101307;28;20027;-78
2022/03/26 02:34:11;;;;;;;29.83;16.50;;;;;;;7.93;65.28;103315.09;5066343;28;20028;-78
2022/03/26 02:36:37;;;;;;;29.90;16.63;;;;;;;7.91;65.15;103311.59;5092315;28;20035;-78
2022/03/26 02:39:04;;;;;;;34.50;17.15;;;;;;;7.90;65.24;103317.69;5082908;28;20055;-78
2022/03/26 02:41:29;;;;;;;30.52;16.77;;;;;;;7.84;65.41;103314.16;5116329;27;20031;-79
2022/03/26 02:43:54;;;;;;;33.03;17.45;;;;;;;7.83;65.42;103317.59;5121531;27;20219;-78
2022/03/26 02:46:20;;;;;;;32.10;17.10;;;;;;;7.80;65.53;103319.31;5103477;28;20045;-78
2022/03/26 02:48:45;;;;;;;29.80;16.33;;;;;;;7.77;65.46;103307.13;5100197;28;20083;-78
2022/03/26 02:51:11;;;;;;;29.88;16.83;;;;;;;7.75;65.46;103315.75;5113817;27;20042;-79
2022/03/26 02:53:36;;;;;;;29.77;17.20;;;;;;;7.71;65.51;103322.69;5119654;27;20298;-78
2022/03/26 02:56:02;;;;;;;27.00;16.52;;;;;;;7.68;65.46;103314.84;5115319;28;20387;-78
2022/03/26 02:58:27;;;;;;;29.00;16.70;;;;;;;7.66;65.44;103307.00;5065837;28;20024;-79
2022/03/26 03:00:53;;;;;;;27.33;16.02;;;;;;;7.65;65.38;103320.00;5099727;28;20080;-78
2022/03/26 03:03:18;;;;;;;31.80;16.77;;;;;;;7.61;65.55;103311.28;5117085;28;20039;-78
2022/03/26 03:05:46;;;;;;;32.28;17.25;;;;;;;7.60;65.57;103311.25;5127660;27;20070;-79
2022/03/26 03:08:14;;;;;;;35.57;17.97;;;;;;;7.56;65.67;103312.09;5134639;27;20392;-78
2022/03/26 03:10:39;;;;;;;35.22;16.98;;;;;;;7.53;65.70;103312.94;5126375;27;20118;-78
2022/03/26 03:13:05;;;;;;;32.60;17.38;;;;;;;7.51;65.71;103319.84;5118716;27;20035;-78
2022/03/26 03:15:30;;;;;;;35.70;18.02;;;;;;;7.49;65.94;103309.41;5088865;27;20046;-78
2022/03/26 03:17:55;;;;;;;31.83;17.77;;;;;;;7.48;65.81;103309.41;5103116;27;20039;-78
2022/03/26 03:20:21;;;;;;;36.00;18.27;;;;;;;7.47;66.13;103313.72;5097532;27;20088;-79
2022/03/26 03:22:46;;;;;;;36.13;18.20;;;;;;;7.46;66.45;103311.97;5120488;27;20401;-78
2022/03/26 03:25:12;;;;;;;35.70;18.55;;;;;;;7.46;66.19;103311.97;5106457;28;20106;-78
2022/03/26 03:27:40;;;;;;;37.72;19.77;;;;;;;7.46;66.20;103311.13;5117562;28;20039;-78
2022/03/26 03:30:06;;;;;;;32.55;18.73;;;;;;;7.45;66.56;103310.22;5122969;27;20400;-78
2022/03/26 03:32:32;;;;;;;44.13;20.75;;;;;;;7.44;67.01;103311.09;5116926;28;20043;-78
2022/03/26 03:34:57;;;;;;;36.80;18.85;;;;;;;7.44;66.84;103313.69;5081945;28;20347;-78
2022/03/26 03:37:26;;;;;;;39.08;19.77;;;;;;;7.44;66.62;103318.00;5080165;28;20073;-78
2022/03/26 03:39:51;;;;;;;41.65;19.10;;;;;;;7.43;66.66;103313.69;5103953;28;20130;-78
2022/03/26 03:42:16;;;;;;;39.22;20.40;;;;;;;7.42;66.51;103317.13;5083407;28;20044;-78
2022/03/26 03:44:42;;;;;;;32.60;19.27;;;;;;;7.40;66.69;103317.09;5117475;28;20220;-78
2022/03/26 03:47:08;;;;;;;39.30;19.83;;;;;;;7.41;66.54;103323.22;5082936;28;20073;-78
2022/03/26 03:49:34;;;;;;;36.53;20.25;;;;;;;7.41;66.96;103328.44;5117404;28;20051;-78
2022/03/26 03:52:00;;;;;;;39.97;20.05;;;;;;;7.39;67.07;103317.13;5117385;28;20047;-78
2022/03/26 03:54:27;;;;;;;39.90;20.02;;;;;;;7.39;66.92;103328.41;5116592;28;20120;-78
2022/03/26 03:56:52;;;;;;;41.00;19.83;;;;;;;7.37;66.93;103324.00;5119444;28;20331;-78
2022/03/26 03:59:18;;;;;;;39.20;19.70;;;;;;;7.35;66.86;103324.03;5085463;28;20035;-80
2022/03/26 04:01:43;;;;;;;39.65;20.42;;;;;;;7.35;67.03;103330.94;5114119;27;20062;-78
2022/03/26 04:04:09;;;;;;;36.83;19.30;;;;;;;7.33;66.86;103325.75;5104043;28;20358;-78
2022/03/26 04:06:35;;;;;;;40.88;20.75;;;;;;;7.30;66.91;103331.78;5121124;28;20042;-78
2022/03/26 04:09:00;;;;;;;39.80;20.35;;;;;;;7.29;66.98;103327.44;5121669;28;20026;-78
2022/03/26 04:11:26;;;;;;;38.47;20.75;;;;;;;7.29;67.03;103331.75;5082205;28;20042;-78
2022/03/26 04:13:53;;;;;;;38.75;20.42;;;;;;;7.25;66.94;103327.34;5084698;28;20342;-78
2022/03/26 04:16:22;;;;;;;39.72;19.98;;;;;;;7.24;67.08;103325.59;5120653;27;20080;-78
2022/03/26 04:18:48;;;;;;;37.58;19.92;;;;;;;7.20;67.24;103335.09;5085955;28;20342;-78
2022/03/26 04:21:14;;;;;;;40.92;19.90;;;;;;;7.19;67.11;103333.38;5096910;27;20116;-78
2022/03/26 04:23:39;;;;;;;41.28;20.50;;;;;;;7.16;67.17;103329.84;5142070;27;20330;-78
2022/03/26 04:26:04;;;;;;;47.58;21.30;;;;;;;7.14;67.42;103326.34;5101939;27;20045;-78
2022/03/26 04:28:30;;;;;;;42.95;20.98;;;;;;;7.10;67.34;103325.44;5120316;28;20106;-78
2022/03/26 04:30:56;;;;;;;39.60;19.88;;;;;;;7.07;67.58;103330.59;5103564;27;20027;-78
2022/03/26 04:33:21;;;;;;;40.55;19.38;;;;;;;7.03;67.51;103332.28;5102731;28;20024;-78
2022/03/26 04:35:46;;;;;;;34.67;20.38;;;;;;;7.00;67.68;103327.00;5112265;28;20027;-78
2022/03/26 04:38:12;;;;;;;40.45;20.30;;;;;;;6.98;67.61;103330.47;5121505;27;20076;-78
2022/03/26 04:40:37;;;;;;;43.00;20.23;;;;;;;6.96;67.68;103330.44;5139756;27;20023;-78
2022/03/26 04:43:03;;;;;;;42.20;20.17;;;;;;;6.94;67.78;103339.97;5101917;28;20023;-78
2022/03/26 04:45:30;;;;;;;38.30;19.80;;;;;;;6.92;67.64;103339.06;5120164;27;20051;-78
2022/03/26 04:47:55;;;;;;;40.67;20.42;;;;;;;6.89;67.75;103337.31;5135853;27;20050;-78
2022/03/26 04:50:21;;;;;;;49.75;22.38;;;;;;;6.88;67.78;103334.69;5105167;27;20045;-78
2022/03/26 04:52:48;;;;;;;43.03;21.23;;;;;;;6.87;67.87;103346.78;5087288;28;20028;-78
2022/03/26 04:55:13;;;;;;;44.60;22.80;;;;;;;6.86;68.04;103341.59;5068500;28;20059;-78
2022/03/26 04:57:43;;;;;;;41.15;21.85;;;;;;;6.85;67.81;103342.44;5102572;28;20063;-78
2022/03/26 05:00:11;;;;;;;44.72;22.98;;;;;;;6.84;67.82;103341.56;5102161;28;20230;-78
2022/03/26 05:02:39;;;;;;;45.25;23.20;;;;;;;6.82;67.79;103343.28;5112477;27;20106;-78
2022/03/26 05:05:05;;;;;;;44.00;22.07;;;;;;;6.82;67.71;103343.28;5140902;27;20103;-78
2022/03/26 05:07:46;;;;;;;46.63;23.50;;;;;;;6.80;67.92;103338.88;5138683;27;20051;-78
2022/03/26 05:10:12;;;;;;;45.55;22.92;;;;;;;6.80;67.87;103344.94;5115685;28;20031;-78
2022/03/26 05:12:37;;;;;;;46.55;23.80;;;;;;;6.79;67.92;103342.34;5103209;28;20028;-78
2022/03/26 05:15:03;;;;;;;46.63;23.27;;;;;;;6.78;68.01;103345.78;5093132;28;20067;-78
2022/03/26 05:17:28;;;;;;;52.10;24.50;;;;;;;6.76;68.41;103337.97;5117304;27;20047;-78
2022/03/26 05:19:54;;;;;;;46.75;24.40;;;;;;;6.75;68.34;103341.44;5119961;27;20253;-78
2022/03/26 05:22:19;;;;;;;52.00;25.20;;;;;;;6.74;68.29;103347.47;5124639;27;20054;-78
2022/03/26 05:24:45;;;;;;;48.03;24.27;;;;;;;6.72;68.27;103339.63;5109045;27;20035;-78
2022/03/26 05:27:10;;;;;;;51.75;24.52;;;;;;;6.71;68.14;103340.50;5100918;27;20196;-78
2022/03/26 05:29:36;;;;;;;47.10;24.73;;;;;;;6.69;68.05;103339.63;5102211;28;20047;-78
2022/03/26 05:32:02;;;;;;;48.55;26.05;;;;;;;6.69;68.08;103346.53;5099413;28;20039;-78
2022/03/26 05:34:27;;;;;;;46.05;23.83;;;;;;;6.67;68.33;103343.03;5119819;27;20038;-79
2022/03/26 05:36:53;;;;;;;50.85;24.90;;;;;;;6.64;68.27;103345.56;5119237;27;20129;-78
2022/03/26 05:39:18;;;;;;;52.35;24.58;;;;;;;6.62;68.52;103345.56;5099764;28;20082;-78
2022/03/26 05:41:44;;;;;;;50.63;24.88;;;;;;;6.61;68.56;103348.16;5099730;28;20050;-78
2022/03/26 05:44:09;;;;;;;54.75;25.02;;;;;;;6.59;68.59;103350.72;5082980;28;20067;-78
2022/03/26 05:46:34;;;;;;;49.50;24.17;;;;;;;6.58;68.43;103353.28;5082057;28;20038;-78
2022/03/26 05:49:00;;;;;;;54.03;25.33;;;;;;;6.56;68.46;103350.66;5114533;27;20107;-78
2022/03/26 05:51:25;;;;;;;51.80;25.60;;;;;;;6.54;68.57;103358.44;5086570;28;20131;-78
2022/03/26 05:53:51;;;;;;;50.55;24.48;;;;;;;6.52;68.64;103354.94;5099579;28;20028;-78
2022/03/26 05:56:16;;;;;;;50.80;25.70;;;;;;;6.51;68.55;103358.41;5098843;28;20427;-78
2022/03/26 05:58:41;;;;;;;49.03;23.55;;;;;;;6.49;68.63;103357.50;5111145;27;20031;-78
2022/03/26 06:01:07;;;;;;;52.92;26.30;;;;;;;6.48;68.70;103358.34;5087462;28;20031;-78
2022/03/26 06:03:32;;;;;;;52.63;24.88;;;;;;;6.46;68.84;103361.78;5108545;27;20042;-78
2022/03/26 06:05:58;;;;;;;48.22;25.10;;;;;;;6.46;69.14;103369.59;5118880;27;20386;-78
2022/03/26 06:08:24;;;;;;;53.33;26.83;;;;;;;6.45;69.03;103367.84;5113699;27;20043;-78
2022/03/26 06:10:49;;;;;;;50.15;24.38;;;;;;;6.42;68.99;103365.16;5103497;28;20050;-78
2022/03/26 06:13:14;;;;;;;46.63;24.17;;;;;;;6.42;68.98;103366.06;5098409;28;20058;-79
2022/03/26 06:15:40;;;;;;;48.40;23.65;;;;;;;6.41;69.09;103361.69;5099128;28;20056;-78
2022/03/26 06:18:06;;;;;;;43.25;23.45;;;;;;;6.41;69.12;103372.13;5101316;28;20067;-78
2022/03/26 06:20:31;;;;;;;50.03;25.63;;;;;;;6.40;69.27;103365.13;5080225;28;20227;-78
2022/03/26 06:22:57;;;;;;;54.47;24.63;;;;;;;6.41;69.06;103364.31;5117401;28;20354;-78
2022/03/26 06:25:22;;;;;;;53.50;27.15;;;;;;;6.41;69.18;103369.50;5097887;28;20039;-78
2022/03/26 06:27:49;;;;;;;55.95;24.27;;;;;;;6.42;69.09;103370.38;5088341;28;20035;-78
2022/03/26 06:30:15;;;;;;;53.92;26.30;;;;;;;6.42;69.21;103373.88;5128901;27;20037;-78
2022/03/26 06:32:41;;;;;;;53.88;25.67;;;;;;;6.43;69.23;103377.34;5117411;28;20369;-78
2022/03/26 06:35:07;;;;;;;54.58;27.05;;;;;;;6.43;69.24;103383.44;5116985;27;20092;-78
2022/03/26 06:37:33;;;;;;;58.15;25.02;;;;;;;6.43;69.26;103375.63;5097964;28;20034;-78
2022/03/26 06:39:59;;;;;;;56.55;26.10;;;;;;;6.43;69.27;103373.00;5116871;27;20374;-78
2022/03/26 06:42:25;;;;;;;53.88;25.15;;;;;;;6.45;69.30;103379.13;5098181;28;20350;-78
2022/03/26 06:44:51;;;;;;;47.60;24.52;;;;;;;6.47;69.41;103379.16;5116709;27;20173;-78
2022/03/26 06:47:17;;;;;;;53.80;25.20;;;;;;;6.47;69.43;103374.81;5081570;28;20043;-78
2022/03/26 06:49:42;;;;;;;46.50;24.08;;;;;;;6.50;69.50;103382.69;5082355;28;20458;-79
2022/03/26 06:52:08;;;;;;;53.58;25.75;;;;;;;6.52;69.72;103374.91;5100848;27;20254;-78
2022/03/26 06:54:33;;;;;;;50.00;24.10;;;;;;;6.55;69.89;103374.97;5090009;28;20107;-79
2022/03/26 06:56:59;;;;;;;52.35;25.00;;;;;;;6.59;70.06;103374.16;5088658;28;20212;-78
2022/03/26 06:59:25;;;;;;;57.58;27.75;;;;;;;6.61;70.37;103372.44;5113636;27;20085;-78
2022/03/26 07:01:50;;;;;;;63.47;28.80;;;;;;;6.65;71.46;103381.19;5112876;28;20031;-78
2022/03/26 07:04:15;;;;;;;59.05;27.70;;;;;;;6.68;71.67;103381.25;5098263;28;20051;-78
2022/03/26 07:06:41;;;;;;;58.67;26.58;;;;;;;6.70;71.64;103374.34;5116632;28;20089;-78
2022/03/26 07:09:06;;;;;;;59.28;28.50;;;;;;;6.73;71.53;103385.69;5120804;27;20046;-78
2022/03/26 07:11:32;;;;;;;87.15;37.83;;;;;;;6.77;74.48;103385.69;5135514;27;20035;-78
2022/03/26 07:13:57;;;;;;;77.85;35.92;;;;;;;6.77;75.10;103386.59;5083711;27;20362;-79
2022/03/26 07:16:22;;;;;;;71.45;34.65;;;;;;;6.81;75.90;103384.91;5106953;28;20564;-78
2022/03/26 07:18:48;;;;;;;66.45;31.98;;;;;;;6.87;75.35;103385.00;5113399;27;20039;-78
2022/03/26 07:21:13;;;;;;;67.53;32.47;;;;;;;6.89;75.49;103384.19;5115773;28;20031;-79
2022/03/26 07:23:38;;;;;;;60.70;28.42;;;;;;;6.92;75.38;103384.22;5097932;28;20055;-78
2022/03/26 07:26:04;;;;;;;61.00;29.67;;;;;;;6.99;74.76;103393.03;5117396;27;20035;-78
2022/03/26 07:28:29;;;;;;;70.90;33.72;;;;;;;7.07;75.52;103396.59;5097720;28;20102;-78
2022/03/26 07:30:55;;;;;;;77.55;34.97;;;;;;;7.07;76.32;103399.19;5119111;28;20050;-78
2022/03/26 07:33:20;;;;;;;68.07;33.25;;;;;;;7.16;76.63;103400.22;5114780;27;20385;-78
2022/03/26 07:35:45;;;;;;;84.57;36.80;;;;;;;7.21;77.58;103409.84;5093389;28;20046;-78
2022/03/26 07:38:12;;;;;;;80.70;37.50;;;;;;;7.22;78.75;103410.72;5100852;28;20024;-78
2022/03/26 07:40:37;;;;;;;86.28;37.13;;;;;;;7.27;78.10;103412.53;5114645;28;20242;-78
2022/03/26 07:43:03;;;;;;;63.38;30.45;;;;;;;7.37;77.68;103410.94;5114535;28;20055;-78
2022/03/26 07:45:28;;;;;;;81.68;36.40;;;;;;;7.40;78.10;103412.69;5106485;28;20055;-78
2022/03/26 07:47:55;;;;;;;74.97;34.70;;;;;;;7.43;78.06;103417.97;5082306;28;20051;-78
2022/03/26 07:50:20;;;;;;;73.82;33.38;;;;;;;7.48;77.81;103425.00;5107996;28;20199;-78
2022/03/26 07:52:46;;;;;;;80.10;35.85;;;;;;;7.56;77.88;103419.00;5113346;28;20031;-78
2022/03/26 07:55:11;;;;;;;70.40;31.10;;;;;;;7.62;77.50;103419.06;5096457;28;20050;-78
2022/03/26 07:57:37;;;;;;;68.15;31.85;;;;;;;7.69;77.07;103424.41;5107853;28;20042;-78
2022/03/26 08:00:05;;;;;;;66.68;31.83;;;;;;;7.75;76.70;103423.63;5102782;28;20035;-79
2022/03/26 08:02:30;;;;;;;65.07;31.73;;;;;;;7.78;76.50;103428.84;5096765;28;20259;-78
2022/03/26 08:04:56;;;;;;;69.75;32.25;;;;;;;7.82;76.27;103441.09;5120228;28;20039;-79
2022/03/26 08:07:21;;;;;;;70.32;32.35;;;;;;;7.91;75.90;103442.06;5079177;28;20055;-79
2022/03/26 08:09:47;;;;;;;66.13;30.13;;;;;;;7.98;75.14;103438.66;5123993;28;20035;-78
2022/03/26 08:12:12;;;;;;;58.10;28.88;;;;;;;8.07;75.05;103441.38;5095735;28;20054;-79
2022/03/26 08:14:38;;;;;;;58.55;28.52;;;;;;;8.19;74.29;103443.25;5094411;28;20057;-79
2022/03/26 08:17:03;;;;;;;66.32;31.48;;;;;;;8.24;73.72;103444.16;5114309;28;20224;-78
2022/03/26 08:19:29;;;;;;;66.65;33.03;;;;;;;8.29;73.99;103445.09;5095523;28;20211;-78
2022/03/26 08:21:54;;;;;;;67.18;30.92;;;;;;;8.33;73.69;103443.38;5097758;28;20069;-78
2022/03/26 08:24:20;;;;;;;71.75;31.88;;;;;;;8.39;73.67;103451.31;5098001;28;20035;-78
2022/03/26 08:26:45;;;;;;;71.18;32.45;;;;;;;8.44;72.97;103447.91;5098452;28;20043;-79
2022/03/26 08:29:11;;;;;;;76.72;33.50;;;;;;;8.49;73.08;103454.91;5117510;28;20027;-79
2022/03/26 08:31:37;;;;;;;70.97;33.17;;;;;;;8.53;72.99;103459.28;5080002;28;20242;-79
2022/03/26 08:34:03;;;;;;;67.68;32.53;;;;;;;8.59;73.00;103456.75;5079115;28;21050;-79
2022/03/26 08:36:30;;;;;;;68.05;33.63;;;;;;;8.63;73.17;103458.53;5116681;28;20058;-78
2022/03/26 08:38:55;;;;;;;60.47;30.33;;;;;;;8.68;73.10;103449.00;5097295;28;20047;-79
2022/03/26 08:41:22;;;;;;;69.47;32.70;;;;;;;8.71;72.96;103454.22;5081110;28;20043;-78
2022/03/26 08:43:52;;;;;;;65.15;30.80;;;;;;;8.75;72.93;103456.03;5095776;28;20043;-78
2022/03/26 08:46:19;;;;;;;60.42;28.98;;;;;;;8.81;72.92;103452.59;5119805;27;20093;-78
2022/03/26 08:48:45;;;;;;;75.35;32.60;;;;;;;8.87;72.95;103450.03;5113785;28;20054;-78
2022/03/26 08:51:11;;;;;;;72.13;32.15;;;;;;;8.95;72.62;103456.19;5123369;27;20042;-79
2022/03/26 08:53:36;;;;;;;69.20;33.65;;;;;;;9.02;72.41;103455.38;5116902;27;20382;-79
2022/03/26 08:56:04;;;;;;;71.03;31.77;;;;;;;9.10;72.46;103451.94;5094441;27;20041;-78
2022/03/26 08:58:30;;;;;;;71.10;30.73;;;;;;;9.13;72.16;103452.84;5103945;27;20050;-79
2022/03/26 09:00:55;;;;;;;61.15;29.35;;;;;;;9.21;72.13;103451.16;5119030;27;20297;-79
2022/03/26 09:03:21;;;;;;;63.90;30.88;;;;;;;9.30;72.29;103452.94;5098820;28;20039;-78
2022/03/26 09:05:48;;;;;;;59.33;27.85;;;;;;;9.36;71.48;103447.75;5124298;27;20039;-79
2022/03/26 09:08:13;;;;;;;58.17;25.75;;;;;;;9.44;71.32;103449.53;5117445;27;20037;-79
2022/03/26 09:10:39;;;;;;;58.35;27.05;;;;;;;9.48;71.09;103446.97;5125195;27;20058;-79
2022/03/26 09:13:04;;;;;;;61.30;29.52;;;;;;;9.51;71.66;103448.72;5121601;27;20047;-78
2022/03/26 09:15:30;;;;;;;58.58;27.02;;;;;;;9.57;70.71;103457.47;5117670;28;20100;-78
2022/03/26 09:17:56;;;;;;;59.28;26.75;;;;;;;9.64;70.55;103457.50;5067642;27;20023;-79
2022/03/26 09:20:21;;;;;;;49.00;24.52;;;;;;;9.72;70.47;103455.81;5106748;28;20122;-79
2022/03/26 09:22:47;;;;;;;55.28;26.23;;;;;;;9.77;70.24;103454.09;5103941;27;20106;-79
2022/03/26 09:25:12;;;;;;;51.67;25.08;;;;;;;9.84;70.23;103458.47;5068191;28;20107;-78
2022/03/26 09:27:38;;;;;;;46.13;23.88;;;;;;;9.92;70.12;103456.75;5119418;27;20046;-78
2022/03/26 09:30:04;;;;;;;47.40;21.80;;;;;;;10.07;69.60;103458.56;5097824;27;20039;-79
2022/03/26 09:32:30;;;;;;;46.25;22.05;;;;;;;10.21;67.47;103461.22;5097223;28;20074;-79
2022/03/26 09:34:55;;;;;;;49.20;23.45;;;;;;;10.25;67.96;103454.25;5111557;28;20031;-79
2022/03/26 09:37:21;;;;;;;47.47;22.02;;;;;;;10.36;67.81;103460.41;5070168;28;20347;-79
2022/03/26 09:39:46;;;;;;;41.83;20.05;;;;;;;10.50;67.05;103458.69;5078663;28;20048;-79
2022/03/26 09:42:13;;;;;;;41.28;21.40;;;;;;;10.63;67.00;103453.47;5117241;27;20085;-79
2022/03/26 09:44:39;;;;;;;40.83;19.60;;;;;;;10.68;66.91;103455.22;5116269;27;20231;-79
2022/03/26 09:47:09;;;;;;;35.95;17.80;;;;;;;10.75;66.65;103448.22;5094204;28;20035;-79
2022/03/26 09:49:38;;;;;;;38.25;18.33;;;;;;;10.87;65.86;103457.84;5114687;28;20181;-79
2022/03/26 09:52:06;;;;;;;34.97;16.30;;;;;;;11.01;65.26;103452.59;5100685;28;20023;-79
2022/03/26 09:54:33;;;;;;;28.30;14.30;;;;;;;11.09;64.92;103458.69;5098950;28;20039;-79
2022/03/26 09:57:04;;;;;;;32.42;15.27;;;;;;;11.22;64.52;103456.94;5098631;28;20380;-79
2022/03/26 09:59:30;;;;;;;24.92;14.00;;;;;;;11.28;64.31;103457.81;5094279;28;20054;-79
2022/03/26 10:01:56;;;;;;;25.52;13.63;;;;;;;11.38;63.96;103455.16;5125440;27;20035;-79
2022/03/26 10:04:23;;;;;;;27.25;15.82;;;;;;;11.50;64.30;103461.25;5115969;27;20036;-79
2022/03/26 10:06:58;;;;;;;33.17;16.88;;;;;;;11.62;63.57;103464.72;5083670;27;20033;-79
2022/03/26 10:09:55;;;;;;;31.77;16.20;;;;;;;11.74;62.66;103458.56;5098003;28;20034;-79
2022/03/26 10:12:22;;;;;;;32.45;15.20;;;;;;;11.75;63.09;103462.91;5091697;28;20044;-79
2022/03/26 10:14:50;;;;;;;33.60;15.50;;;;;;;11.78;61.87;103448.03;5111382;28;20031;-79
2022/03/26 10:17:22;;;;;;;25.85;14.60;;;;;;;11.88;61.90;103456.75;5115229;27;20031;-79
2022/03/26 10:20:02;;;;;;;25.75;14.68;;;;;;;11.95;61.38;103453.25;5124526;27;20042;-79
2022/03/26 10:22:38;;;;;;;27.15;15.20;;;;;;;12.04;61.60;103458.47;5107285;27;20047;-79
2022/03/26 10:25:31;;;;;;;32.55;14.60;;;;;;;12.08;61.25;103459.31;5083325;28;20027;-79
2022/03/26 10:27:57;;;;;;;28.98;14.43;;;;;;;12.15;60.89;103449.63;5097858;28;20355;-79
2022/03/26 10:33:28;;;;;;;31.35;15.13;;;;;;;12.27;59.29;103445.16;5106440;27;20231;-79
2022/03/26 10:36:03;;;;;;;35.13;15.75;;;;;;;12.26;59.78;103437.28;5103912;28;20058;-79
2022/03/26 10:38:30;;;;;;;31.58;16.88;;;;;;;12.29;59.93;103438.16;5117369;27;20035;-79
2022/03/26 10:41:01;;;;;;;34.08;17.08;;;;;;;12.43;59.97;103437.19;5111220;28;20055;-79
2022/03/26 10:43:27;;;;;;;30.02;15.98;;;;;;;12.55;58.98;103438.84;5099358;28;20032;-79
2022/03/26 10:45:55;;;;;;;28.92;16.10;;;;;;;12.54;59.42;103432.72;5087729;28;20031;-79
2022/03/26 10:48:29;;;;;;;38.22;19.67;;;;;;;12.59;59.77;103438.84;5118799;27;20039;-79
2022/03/26 10:50:59;;;;;;;37.50;19.67;;;;;;;12.58;60.59;103428.31;5121561;27;20038;-80
2022/03/26 10:53:46;;;;;;;39.00;19.80;;;;;;;12.70;60.11;103433.50;5090261;27;20370;-80
2022/03/26 10:56:14;;;;;;;36.58;19.67;;;;;;;12.73;60.24;103436.06;5100480;28;20407;-79
2022/03/26 10:58:41;;;;;;;37.17;19.77;;;;;;;12.77;59.94;103422.03;5086745;28;20185;-79
2022/03/26 11:01:07;;;;;;;39.15;19.58;;;;;;;12.81;58.29;103434.25;5100006;27;20290;-79
2022/03/26 11:03:34;;;;;;;40.47;20.42;;;;;;;12.83;59.05;103427.22;5114662;28;20027;-79
2022/03/26 11:06:00;;;;;;;44.53;20.00;;;;;;;12.91;58.85;103432.41;5085859;28;20054;-79
2022/03/26 11:08:30;;;;;;;33.97;18.30;;;;;;;12.95;59.04;103425.38;5121377;27;20027;-79
2022/03/26 11:10:59;;;;;;;40.78;20.60;;;;;;;13.00;58.83;103423.56;5087325;28;20222;-79
2022/03/26 11:13:27;;;;;;;41.92;21.52;;;;;;;13.05;58.42;103419.13;5111514;27;20036;-79
2022/03/26 11:16:01;;;;;;;49.27;22.60;;;;;;;13.12;57.35;103422.59;5107489;28;20058;-80